sensor_id;sensor_type;location;lat;lon;timestamp;P1;durP1;ratioP1;P2;durP2;ratioP2
74788;SDS011;63313;48.258;12.518;2023-11-19T00:03:00;3.07;;;2.66;;
74788;SDS011;63313;48.258;12.518;2023-11-19T00:08:27;3.69;;;3.2399999999999998;;
74788;SDS011;63313;48.258;12.518;2023-11-19T00:13:55;3.8899999999999997;;;3.35;;
74788;SDS011;63313;48.258;12.518;2023-11-19T00:19:22;3.7300000000000004;;;3.3600000000000003;;
74788;SDS011;63313;48.258;12.518;2023-11-19T00:24:49;4.930000000000001;;;3.97;;
74788;SDS011;63313;48.258;12.518;2023-11-19T00:30:16;5.61;;;4.39;;
74788;SDS011;63313;48.258;12.518;2023-11-19T00:35:43;7.709999999999999;;;4.470000000000001;;
74788;SDS011;63313;48.258;12.518;2023-11-19T00:41:10;5.0;;;4.51;;
74788;SDS011;63313;48.258;12.518;2023-11-19T00:46:37;7.209999999999999;;;5.300000000000001;;
74788;SDS011;63313;48.258;12.518;2023-11-19T00:52:04;9.84;;;6.470000000000001;;
74788;SDS011;63313;48.258;12.518;2023-11-19T00:57:31;9.7;;;7.07;;
74788;SDS011;63313;48.258;12.518;2023-11-19T01:02:58;12.58;;;7.33;;
74788;SDS011;63313;48.258;12.518;2023-11-19T01:08:25;8.98;;;6.480000000000001;;
74788;SDS011;63313;48.258;12.518;2023-11-19T01:13:52;8.21;;;6.409999999999999;;
74788;SDS011;63313;48.258;12.518;2023-11-19T01:19:19;7.87;;;5.6;;
74788;SDS011;63313;48.258;12.518;2023-11-19T01:24:46;6.45;;;5.49;;
74788;SDS011;63313;48.258;12.518;2023-11-19T01:30:13;7.3199999999999985;;;5.680000000000001;;
74788;SDS011;63313;48.258;12.518;2023-11-19T01:35:40;9.690000000000001;;;5.380000000000001;;
74788;SDS011;63313;48.258;12.518;2023-11-19T01:41:08;6.24;;;5.57;;
74788;SDS011;63313;48.258;12.518;2023-11-19T01:46:35;9.09;;;5.869999999999999;;
74788;SDS011;63313;48.258;12.518;2023-11-19T01:52:02;7.68;;;6.410000000000001;;
74788;SDS011;63313;48.258;12.518;2023-11-19T01:57:29;8.0;;;6.09;;
74788;SDS011;63313;48.258;12.518;2023-11-19T02:02:57;8.68;;;6.840000000000001;;
74788;SDS011;63313;48.258;12.518;2023-11-19T02:08:24;6.959999999999999;;;5.880000000000001;;
74788;SDS011;63313;48.258;12.518;2023-11-19T02:13:51;8.120000000000001;;;6.519999999999999;;
74788;SDS011;63313;48.258;12.518;2023-11-19T02:19:18;8.209999999999997;;;6.539999999999999;;
74788;SDS011;63313;48.258;12.518;2023-11-19T02:24:46;8.37;;;6.55;;
74788;SDS011;63313;48.258;12.518;2023-11-19T02:30:15;7.75;;;6.609999999999999;;
74788;SDS011;63313;48.258;12.518;2023-11-19T02:35:42;7.590000000000001;;;5.6;;
74788;SDS011;63313;48.258;12.518;2023-11-19T02:41:09;7.31;;;5.949999999999999;;
74788;SDS011;63313;48.258;12.518;2023-11-19T02:46:36;9.24;;;6.140000000000001;;
74788;SDS011;63313;48.258;12.518;2023-11-19T02:52:04;7.210000000000001;;;6.089999999999999;;
74788;SDS011;63313;48.258;12.518;2023-11-19T02:57:31;7.1;;;5.49;;
74788;SDS011;63313;48.258;12.518;2023-11-19T03:02:58;6.959999999999999;;;5.52;;
74788;SDS011;63313;48.258;12.518;2023-11-19T03:08:25;7.6;;;5.83;;
74788;SDS011;63313;48.258;12.518;2023-11-19T03:13:52;6.1;;;5.13;;
74788;SDS011;63313;48.258;12.518;2023-11-19T03:19:19;6.75;;;5.48;;
74788;SDS011;63313;48.258;12.518;2023-11-19T03:24:46;6.840000000000001;;;5.75;;
74788;SDS011;63313;48.258;12.518;2023-11-19T03:30:13;5.6499999999999995;;;5.0;;
74788;SDS011;63313;48.258;12.518;2023-11-19T03:35:40;7.709999999999999;;;5.75;;
74788;SDS011;63313;48.258;12.518;2023-11-19T03:41:10;6.39;;;4.93;;
74788;SDS011;63313;48.258;12.518;2023-11-19T03:46:37;6.28;;;4.63;;
74788;SDS011;63313;48.258;12.518;2023-11-19T03:52:04;7.1;;;5.569999999999999;;
74788;SDS011;63313;48.258;12.518;2023-11-19T03:57:31;11.48;;;6.65;;
74788;SDS011;63313;48.258;12.518;2023-11-19T04:02:58;10.329999999999998;;;6.87;;
74788;SDS011;63313;48.258;12.518;2023-11-19T04:08:25;11.31;;;7.239999999999999;;
74788;SDS011;63313;48.258;12.518;2023-11-19T04:13:52;13.59;;;7.869999999999999;;
74788;SDS011;63313;48.258;12.518;2023-11-19T04:19:19;9.790000000000003;;;6.62;;
74788;SDS011;63313;48.258;12.518;2023-11-19T04:24:46;10.98;;;7.18;;
74788;SDS011;63313;48.258;12.518;2023-11-19T04:30:13;12.58;;;7.260000000000001;;
74788;SDS011;63313;48.258;12.518;2023-11-19T04:35:40;13.76;;;7.58;;
74788;SDS011;63313;48.258;12.518;2023-11-19T04:41:07;14.509999999999996;;;8.59;;
74788;SDS011;63313;48.258;12.518;2023-11-19T04:46:34;16.15;;;8.02;;
74788;SDS011;63313;48.258;12.518;2023-11-19T04:52:01;14.11;;;8.24;;
74788;SDS011;63313;48.258;12.518;2023-11-19T04:57:29;11.26;;;7.5;;
74788;SDS011;63313;48.258;12.518;2023-11-19T05:02:56;10.81;;;6.17;;
74788;SDS011;63313;48.258;12.518;2023-11-19T05:08:23;12.639999999999999;;;7.340000000000001;;
74788;SDS011;63313;48.258;12.518;2023-11-19T05:13:50;10.18;;;6.2;;
74788;SDS011;63313;48.258;12.518;2023-11-19T05:19:17;12.190000000000001;;;6.760000000000001;;
74788;SDS011;63313;48.258;12.518;2023-11-19T05:24:44;11.120000000000001;;;6.710000000000001;;
74788;SDS011;63313;48.258;12.518;2023-11-19T05:30:11;10.84;;;6.95;;
74788;SDS011;63313;48.258;12.518;2023-11-19T05:35:38;13.190000000000001;;;7.25;;
74788;SDS011;63313;48.258;12.518;2023-11-19T05:41:05;13.49;;;7.6;;
74788;SDS011;63313;48.258;12.518;2023-11-19T05:46:32;14.3;;;7.029999999999999;;
74788;SDS011;63313;48.258;12.518;2023-11-19T05:51:59;15.559999999999999;;;7.74;;
74788;SDS011;63313;48.258;12.518;2023-11-19T05:57:26;11.360000000000001;;;6.88;;
74788;SDS011;63313;48.258;12.518;2023-11-19T06:02:53;11.3;;;6.69;;
74788;SDS011;63313;48.258;12.518;2023-11-19T06:08:20;10.81;;;6.7;;
74788;SDS011;63313;48.258;12.518;2023-11-19T06:13:47;11.68;;;6.840000000000001;;
74788;SDS011;63313;48.258;12.518;2023-11-19T06:19:15;9.62;;;6.29;;
74788;SDS011;63313;48.258;12.518;2023-11-19T06:24:42;9.11;;;6.410000000000001;;
74788;SDS011;63313;48.258;12.518;2023-11-19T06:30:09;10.41;;;7.17;;
74788;SDS011;63313;48.258;12.518;2023-11-19T06:35:36;15.26;;;7.920000000000002;;
74788;SDS011;63313;48.258;12.518;2023-11-19T06:41:06;15.690000000000001;;;8.59;;
74788;SDS011;63313;48.258;12.518;2023-11-19T06:46:33;13.229999999999999;;;8.36;;
74788;SDS011;63313;48.258;12.518;2023-11-19T06:52:00;18.15;;;9.98;;
74788;SDS011;63313;48.258;12.518;2023-11-19T06:57:27;17.39;;;10.11;;
74788;SDS011;63313;48.258;12.518;2023-11-19T07:02:55;22.700000000000003;;;13.809999999999999;;
74788;SDS011;63313;48.258;12.518;2023-11-19T07:08:22;15.11;;;9.91;;
74788;SDS011;63313;48.258;12.518;2023-11-19T07:13:49;32.05;;;13.540000000000001;;
74788;SDS011;63313;48.258;12.518;2023-11-19T07:19:16;17.439999999999998;;;10.09;;
74788;SDS011;63313;48.258;12.518;2023-11-19T07:24:43;17.04;;;10.3;;
74788;SDS011;63313;48.258;12.518;2023-11-19T07:30:10;18.34;;;10.18;;
74788;SDS011;63313;48.258;12.518;2023-11-19T07:35:37;14.969999999999999;;;9.82;;
74788;SDS011;63313;48.258;12.518;2023-11-19T07:41:04;19.080000000000002;;;11.11;;
74788;SDS011;63313;48.258;12.518;2023-11-19T07:46:31;19.759999999999998;;;11.09;;
74788;SDS011;63313;48.258;12.518;2023-11-19T07:51:58;17.11;;;10.8;;
74788;SDS011;63313;48.258;12.518;2023-11-19T07:57:26;18.43;;;11.24;;
74788;SDS011;63313;48.258;12.518;2023-11-19T08:02:53;24.47;;;13.51;;
74788;SDS011;63313;48.258;12.518;2023-11-19T08:08:20;25.54;;;14.3;;
74788;SDS011;63313;48.258;12.518;2023-11-19T08:13:47;22.57;;;10.94;;
74788;SDS011;63313;48.258;12.518;2023-11-19T08:19:14;16.91;;;10.53;;
74788;SDS011;63313;48.258;12.518;2023-11-19T08:24:41;14.079999999999998;;;8.8;;
74788;SDS011;63313;48.258;12.518;2023-11-19T08:30:08;12.729999999999999;;;8.399999999999999;;
74788;SDS011;63313;48.258;12.518;2023-11-19T08:35:35;12.56;;;8.580000000000002;;
74788;SDS011;63313;48.258;12.518;2023-11-19T08:41:03;12.52;;;8.459999999999999;;
74788;SDS011;63313;48.258;12.518;2023-11-19T08:46:30;12.86;;;8.57;;
74788;SDS011;63313;48.258;12.518;2023-11-19T08:51:57;12.1;;;7.4799999999999995;;
74788;SDS011;63313;48.258;12.518;2023-11-19T08:57:24;12.02;;;7.459999999999999;;
74788;SDS011;63313;48.258;12.518;2023-11-19T09:02:51;8.040000000000001;;;6.540000000000001;;
74788;SDS011;63313;48.258;12.518;2023-11-19T09:08:18;10.559999999999999;;;7.089999999999999;;
74788;SDS011;63313;48.258;12.518;2023-11-19T09:13:45;8.07;;;6.07;;
74788;SDS011;63313;48.258;12.518;2023-11-19T09:19:12;11.81;;;7.8100000000000005;;
74788;SDS011;63313;48.258;12.518;2023-11-19T09:24:39;18.34;;;11.370000000000001;;
74788;SDS011;63313;48.258;12.518;2023-11-19T09:30:07;14.809999999999999;;;9.47;;
74788;SDS011;63313;48.258;12.518;2023-11-19T09:35:34;11.459999999999999;;;7.640000000000001;;
74788;SDS011;63313;48.258;12.518;2023-11-19T09:41:01;1.8700000000000003;;;0.99;;
74788;SDS011;63313;48.258;12.518;2023-11-19T09:46:28;0.71;;;0.71;;
74788;SDS011;63313;48.258;12.518;2023-11-19T09:51:55;0.6499999999999999;;;0.6499999999999999;;
74788;SDS011;63313;48.258;12.518;2023-11-19T09:57:22;0.9099999999999999;;;0.6299999999999999;;
74788;SDS011;63313;48.258;12.518;2023-11-19T10:02:49;1.44;;;0.57;;
74788;SDS011;63313;48.258;12.518;2023-11-19T10:08:16;0.78;;;0.77;;
74788;SDS011;63313;48.258;12.518;2023-11-19T10:13:43;0.7700000000000001;;;0.76;;
74788;SDS011;63313;48.258;12.518;2023-11-19T10:19:12;0.5;;;0.5;;
74788;SDS011;63313;48.258;12.518;2023-11-19T10:24:39;0.5399999999999999;;;0.5399999999999999;;
74788;SDS011;63313;48.258;12.518;2023-11-19T10:30:07;0.6900000000000001;;;0.6900000000000001;;
74788;SDS011;63313;48.258;12.518;2023-11-19T10:35:34;0.45999999999999996;;;0.45999999999999996;;
74788;SDS011;63313;48.258;12.518;2023-11-19T10:41:02;0.53;;;0.53;;
74788;SDS011;63313;48.258;12.518;2023-11-19T10:46:36;0.51;;;0.51;;
74788;SDS011;63313;48.258;12.518;2023-11-19T10:52:04;0.39;;;0.39;;
74788;SDS011;63313;48.258;12.518;2023-11-19T10:57:32;0.9600000000000002;;;0.75;;
74788;SDS011;63313;48.258;12.518;2023-11-19T11:03:02;0.51;;;0.51;;
74788;SDS011;63313;48.258;12.518;2023-11-19T11:08:32;1.25;;;0.82;;
74788;SDS011;63313;48.258;12.518;2023-11-19T11:14:03;0.9500000000000002;;;0.51;;
74788;SDS011;63313;48.258;12.518;2023-11-19T11:19:31;0.5899999999999999;;;0.5899999999999999;;
74788;SDS011;63313;48.258;12.518;2023-11-19T11:25:01;0.5599999999999999;;;0.5599999999999999;;
74788;SDS011;63313;48.258;12.518;2023-11-19T11:30:35;0.43000000000000005;;;0.43000000000000005;;
74788;SDS011;63313;48.258;12.518;2023-11-19T11:36:10;0.64;;;0.49000000000000005;;
74788;SDS011;63313;48.258;12.518;2023-11-19T11:41:40;2.25;;;0.6799999999999999;;
74788;SDS011;63313;48.258;12.518;2023-11-19T11:47:07;0.79;;;0.79;;
74788;SDS011;63313;48.258;12.518;2023-11-19T11:52:36;0.77;;;0.45;;
74788;SDS011;63313;48.258;12.518;2023-11-19T11:58:40;0.49000000000000005;;;0.43;;
74788;SDS011;63313;48.258;12.518;2023-11-19T12:04:07;0.41;;;0.4;;
74788;SDS011;63313;48.258;12.518;2023-11-19T12:09:36;0.85;;;0.5399999999999999;;
74788;SDS011;63313;48.258;12.518;2023-11-19T12:15:04;0.6299999999999999;;;0.6299999999999999;;
74788;SDS011;63313;48.258;12.518;2023-11-19T12:20:32;1.3;;;0.6;;
74788;SDS011;63313;48.258;12.518;2023-11-19T12:26:00;1.0299999999999998;;;0.75;;
74788;SDS011;63313;48.258;12.518;2023-11-19T12:31:27;0.5199999999999999;;;0.5199999999999999;;
74788;SDS011;63313;48.258;12.518;2023-11-19T12:36:54;0.55;;;0.44000000000000006;;
74788;SDS011;63313;48.258;12.518;2023-11-19T12:42:21;0.49000000000000005;;;0.49000000000000005;;
74788;SDS011;63313;48.258;12.518;2023-11-19T12:47:48;0.48999999999999994;;;0.48999999999999994;;
74788;SDS011;63313;48.258;12.518;2023-11-19T12:53:15;0.4800000000000001;;;0.4800000000000001;;
74788;SDS011;63313;48.258;12.518;2023-11-19T12:58:42;1.4;;;0.48;;
74788;SDS011;63313;48.258;12.518;2023-11-19T13:04:18;1.34;;;0.5;;
74788;SDS011;63313;48.258;12.518;2023-11-19T13:09:45;0.55;;;0.55;;
74788;SDS011;63313;48.258;12.518;2023-11-19T13:15:22;1.81;;;0.8799999999999999;;
74788;SDS011;63313;48.258;12.518;2023-11-19T13:20:49;1.19;;;0.48;;
74788;SDS011;63313;48.258;12.518;2023-11-19T13:26:16;0.78;;;0.7700000000000001;;
74788;SDS011;63313;48.258;12.518;2023-11-19T13:31:43;0.5900000000000001;;;0.5900000000000001;;
74788;SDS011;63313;48.258;12.518;2023-11-19T13:37:11;0.6299999999999999;;;0.5999999999999999;;
74788;SDS011;63313;48.258;12.518;2023-11-19T13:42:38;0.8099999999999999;;;0.6499999999999999;;
74788;SDS011;63313;48.258;12.518;2023-11-19T13:48:05;1.8399999999999999;;;0.65;;
74788;SDS011;63313;48.258;12.518;2023-11-19T13:53:32;0.72;;;0.72;;
74788;SDS011;63313;48.258;12.518;2023-11-19T13:58:59;0.5999999999999999;;;0.5999999999999999;;
74788;SDS011;63313;48.258;12.518;2023-11-19T14:04:26;0.6799999999999999;;;0.6599999999999999;;
74788;SDS011;63313;48.258;12.518;2023-11-19T14:09:53;1.3599999999999999;;;0.5999999999999999;;
74788;SDS011;63313;48.258;12.518;2023-11-19T14:15:20;5.15;;;1.34;;
74788;SDS011;63313;48.258;12.518;2023-11-19T14:20:47;0.5999999999999999;;;0.5999999999999999;;
74788;SDS011;63313;48.258;12.518;2023-11-19T14:26:14;0.5899999999999999;;;0.5899999999999999;;
74788;SDS011;63313;48.258;12.518;2023-11-19T14:31:41;0.64;;;0.64;;
74788;SDS011;63313;48.258;12.518;2023-11-19T14:37:08;0.5;;;0.5;;
74788;SDS011;63313;48.258;12.518;2023-11-19T14:42:36;0.54;;;0.52;;
74788;SDS011;63313;48.258;12.518;2023-11-19T14:48:03;2.21;;;0.5799999999999998;;
74788;SDS011;63313;48.258;12.518;2023-11-19T14:53:30;0.72;;;0.72;;
74788;SDS011;63313;48.258;12.518;2023-11-19T14:58:57;0.6399999999999999;;;0.57;;
74788;SDS011;63313;48.258;12.518;2023-11-19T15:04:24;0.5299999999999999;;;0.5299999999999999;;
74788;SDS011;63313;48.258;12.518;2023-11-19T15:09:51;1.0299999999999998;;;0.5899999999999999;;
74788;SDS011;63313;48.258;12.518;2023-11-19T15:15:18;0.76;;;0.76;;
74788;SDS011;63313;48.258;12.518;2023-11-19T15:20:45;0.75;;;0.75;;
74788;SDS011;63313;48.258;12.518;2023-11-19T15:26:13;0.55;;;0.55;;
74788;SDS011;63313;48.258;12.518;2023-11-19T15:31:40;0.6799999999999999;;;0.5899999999999999;;
74788;SDS011;63313;48.258;12.518;2023-11-19T15:37:07;1.9299999999999997;;;0.5599999999999999;;
74788;SDS011;63313;48.258;12.518;2023-11-19T15:42:34;0.54;;;0.54;;
74788;SDS011;63313;48.258;12.518;2023-11-19T15:48:01;0.6299999999999999;;;0.5499999999999999;;
74788;SDS011;63313;48.258;12.518;2023-11-19T15:53:28;0.79;;;0.75;;
74788;SDS011;63313;48.258;12.518;2023-11-19T15:58:55;0.89;;;0.89;;
74788;SDS011;63313;48.258;12.518;2023-11-19T16:04:22;1.16;;;1.08;;
74788;SDS011;63313;48.258;12.518;2023-11-19T16:09:49;3.8300000000000005;;;1.8;;
74788;SDS011;63313;48.258;12.518;2023-11-19T16:15:16;1.8199999999999998;;;1.5899999999999999;;
74788;SDS011;63313;48.258;12.518;2023-11-19T16:20:44;1.22;;;1.0699999999999998;;
74788;SDS011;63313;48.258;12.518;2023-11-19T16:26:11;0.89;;;0.89;;
74788;SDS011;63313;48.258;12.518;2023-11-19T16:31:38;1.4200000000000002;;;1.3200000000000003;;
74788;SDS011;63313;48.258;12.518;2023-11-19T16:37:05;2.72;;;1.73;;
74788;SDS011;63313;48.258;12.518;2023-11-19T16:42:32;1.73;;;1.45;;
74788;SDS011;63313;48.258;12.518;2023-11-19T16:47:59;1.95;;;1.2900000000000003;;
74788;SDS011;63313;48.258;12.518;2023-11-19T16:53:26;1.4300000000000002;;;1.3800000000000001;;
74788;SDS011;63313;48.258;12.518;2023-11-19T16:58:53;1.2699999999999998;;;1.0;;
74788;SDS011;63313;48.258;12.518;2023-11-19T17:04:20;1.9599999999999997;;;1.73;;
74788;SDS011;63313;48.258;12.518;2023-11-19T17:09:48;4.15;;;3.66;;
74788;SDS011;63313;48.258;12.518;2023-11-19T17:15:15;2.8300000000000005;;;1.5699999999999998;;
74788;SDS011;63313;48.258;12.518;2023-11-19T17:20:42;3.7;;;1.8;;
74788;SDS011;63313;48.258;12.518;2023-11-19T17:26:09;1.67;;;1.5100000000000002;;
74788;SDS011;63313;48.258;12.518;2023-11-19T17:31:36;1.86;;;1.37;;
74788;SDS011;63313;48.258;12.518;2023-11-19T17:37:03;1.9;;;1.75;;
74788;SDS011;63313;48.258;12.518;2023-11-19T17:42:30;1.8599999999999999;;;1.7399999999999998;;
74788;SDS011;63313;48.258;12.518;2023-11-19T17:47:57;2.4299999999999997;;;2.1;;
74788;SDS011;63313;48.258;12.518;2023-11-19T17:53:25;5.33;;;3.31;;
74788;SDS011;63313;48.258;12.518;2023-11-19T17:58:52;3.06;;;2.3;;
74788;SDS011;63313;48.258;12.518;2023-11-19T18:04:19;3.8899999999999997;;;1.6799999999999997;;
74788;SDS011;63313;48.258;12.518;2023-11-19T18:09:46;1.8500000000000003;;;1.53;;
74788;SDS011;63313;48.258;12.518;2023-11-19T18:15:13;1.8599999999999999;;;1.7600000000000002;;
74788;SDS011;63313;48.258;12.518;2023-11-19T18:20:40;3.29;;;2.1499999999999995;;
74788;SDS011;63313;48.258;12.518;2023-11-19T18:26:07;3.0999999999999996;;;2.0;;
74788;SDS011;63313;48.258;12.518;2023-11-19T18:31:34;2.3899999999999997;;;2.12;;
74788;SDS011;63313;48.258;12.518;2023-11-19T18:37:01;5.37;;;2.9199999999999995;;
74788;SDS011;63313;48.258;12.518;2023-11-19T18:42:28;4.630000000000001;;;2.48;;
74788;SDS011;63313;48.258;12.518;2023-11-19T18:47:55;3.65;;;2.5300000000000002;;
74788;SDS011;63313;48.258;12.518;2023-11-19T18:53:22;1.73;;;1.6099999999999999;;
74788;SDS011;63313;48.258;12.518;2023-11-19T18:58:49;2.11;;;1.59;;
74788;SDS011;63313;48.258;12.518;2023-11-19T19:04:16;1.3000000000000003;;;1.2;;
74788;SDS011;63313;48.258;12.518;2023-11-19T19:09:44;1.95;;;1.1799999999999997;;
74788;SDS011;63313;48.258;12.518;2023-11-19T19:15:11;4.15;;;2.62;;
74788;SDS011;63313;48.258;12.518;2023-11-19T19:20:38;2.74;;;1.44;;
74788;SDS011;63313;48.258;12.518;2023-11-19T19:26:05;3.29;;;1.8199999999999998;;
74788;SDS011;63313;48.258;12.518;2023-11-19T19:31:32;1.8399999999999994;;;1.75;;
74788;SDS011;63313;48.258;12.518;2023-11-19T19:36:59;1.6900000000000002;;;1.5799999999999998;;
74788;SDS011;63313;48.258;12.518;2023-11-19T19:42:26;2.32;;;1.7600000000000002;;
74788;SDS011;63313;48.258;12.518;2023-11-19T19:47:54;2.37;;;1.7899999999999998;;
74788;SDS011;63313;48.258;12.518;2023-11-19T19:53:21;1.55;;;1.3900000000000001;;
74788;SDS011;63313;48.258;12.518;2023-11-19T19:58:48;2.3899999999999997;;;1.0499999999999998;;
74788;SDS011;63313;48.258;12.518;2023-11-19T20:04:15;1.97;;;1.3;;
74788;SDS011;63313;48.258;12.518;2023-11-19T20:09:42;2.38;;;1.4600000000000002;;
74788;SDS011;63313;48.258;12.518;2023-11-19T20:15:09;1.5;;;0.96;;
74788;SDS011;63313;48.258;12.518;2023-11-19T20:20:36;2.3299999999999996;;;1.3800000000000001;;
74788;SDS011;63313;48.258;12.518;2023-11-19T20:26:03;2.2299999999999995;;;1.3299999999999998;;
74788;SDS011;63313;48.258;12.518;2023-11-19T20:31:31;1.6599999999999997;;;1.49;;
74788;SDS011;63313;48.258;12.518;2023-11-19T20:36:58;2.4699999999999998;;;1.1300000000000001;;
74788;SDS011;63313;48.258;12.518;2023-11-19T20:42:25;4.41;;;1.48;;
74788;SDS011;63313;48.258;12.518;2023-11-19T20:47:52;1.6300000000000001;;;1.02;;
74788;SDS011;63313;48.258;12.518;2023-11-19T20:53:19;4.19;;;1.17;;
74788;SDS011;63313;48.258;12.518;2023-11-19T20:58:46;2.91;;;1.17;;
74788;SDS011;63313;48.258;12.518;2023-11-19T21:04:13;2.3499999999999996;;;1.13;;
74788;SDS011;63313;48.258;12.518;2023-11-19T21:09:40;4.1899999999999995;;;1.9;;
74788;SDS011;63313;48.258;12.518;2023-11-19T21:15:08;2.39;;;1.92;;
74788;SDS011;63313;48.258;12.518;2023-11-19T21:20:35;1.35;;;1.1900000000000002;;
74788;SDS011;63313;48.258;12.518;2023-11-19T21:26:02;2.34;;;1.27;;
74788;SDS011;63313;48.258;12.518;2023-11-19T21:31:29;1.8800000000000001;;;1.34;;
74788;SDS011;63313;48.258;12.518;2023-11-19T21:36:56;1.5799999999999998;;;1.2400000000000002;;
74788;SDS011;63313;48.258;12.518;2023-11-19T21:42:23;10.010000000000002;;;1.9599999999999997;;
74788;SDS011;63313;48.258;12.518;2023-11-19T21:47:50;4.2700000000000005;;;1.48;;
74788;SDS011;63313;48.258;12.518;2023-11-19T21:53:17;5.32;;;1.7;;
74788;SDS011;63313;48.258;12.518;2023-11-19T21:58:44;2.12;;;1.1099999999999999;;
74788;SDS011;63313;48.258;12.518;2023-11-19T22:04:11;5.65;;;2.66;;
74788;SDS011;63313;48.258;12.518;2023-11-19T22:09:39;14.98;;;5.94;;
74788;SDS011;63313;48.258;12.518;2023-11-19T22:15:07;14.930000000000001;;;6.529999999999999;;
74788;SDS011;63313;48.258;12.518;2023-11-19T22:20:34;8.43;;;3.6199999999999997;;
74788;SDS011;63313;48.258;12.518;2023-11-19T22:26:01;19.48;;;6.959999999999999;;
74788;SDS011;63313;48.258;12.518;2023-11-19T22:31:30;3.47;;;2.2;;
74788;SDS011;63313;48.258;12.518;2023-11-19T22:36:57;2.62;;;1.3800000000000001;;
74788;SDS011;63313;48.258;12.518;2023-11-19T22:42:24;2.4;;;1.6900000000000002;;
74788;SDS011;63313;48.258;12.518;2023-11-19T22:47:52;1.9899999999999998;;;1.5;;
74788;SDS011;63313;48.258;12.518;2023-11-19T22:53:19;1.1099999999999999;;;1.02;;
74788;SDS011;63313;48.258;12.518;2023-11-19T22:58:46;3.0100000000000002;;;1.15;;
74788;SDS011;63313;48.258;12.518;2023-11-19T23:04:13;1.4;;;1.1999999999999997;;
74788;SDS011;63313;48.258;12.518;2023-11-19T23:09:40;2.77;;;1.61;;
74788;SDS011;63313;48.258;12.518;2023-11-19T23:15:07;1.9900000000000002;;;1.5599999999999998;;
74788;SDS011;63313;48.258;12.518;2023-11-19T23:20:34;3.0200000000000005;;;1.5699999999999998;;
74788;SDS011;63313;48.258;12.518;2023-11-19T23:26:01;1.48;;;1.3699999999999999;;
74788;SDS011;63313;48.258;12.518;2023-11-19T23:31:28;5.33;;;1.8099999999999998;;
74788;SDS011;63313;48.258;12.518;2023-11-19T23:36:55;3.5;;;1.5;;
74788;SDS011;63313;48.258;12.518;2023-11-19T23:42:22;3.5400000000000005;;;1.9900000000000002;;
74788;SDS011;63313;48.258;12.518;2023-11-19T23:47:50;3.21;;;1.61;;
74788;SDS011;63313;48.258;12.518;2023-11-19T23:53:17;1.77;;;1.52;;
74788;SDS011;63313;48.258;12.518;2023-11-19T23:58:44;5.06;;;2.3;;
